Time;durP1;ratioP1;P1;durP2;ratioP2;P2;SDS_P1;SDS_P2;PMS_P1;PMS_P2;Temp;Humidity;BMP_temperature;BMP_pressure;BME280_temperature;BME280_humidity;BME280_pressure;Samples;Min_cycle;Max_cycle;Signal;HPM_P1;HPM_P2
2022/09/24 00:02:00;;;;;;;11.40;9.27;;;14.70;99.90;;;;;;5048864;28;20635;-46
2022/09/24 00:04:26;;;;;;;12.03;8.57;;;14.60;99.90;;;;;;5048672;28;20213;-46
2022/09/24 00:06:52;;;;;;;11.47;9.93;;;14.60;99.90;;;;;;5049014;28;20527;-49
2022/09/24 00:09:21;;;;;;;12.50;10.40;;;14.60;99.90;;;;;;5049344;28;20435;-47
2022/09/24 00:11:49;;;;;;;12.10;10.80;;;14.60;99.90;;;;;;5048851;28;21069;-47
2022/09/24 00:14:16;;;;;;;12.03;10.83;;;14.60;99.90;;;;;;5051556;28;20440;-50
2022/09/24 00:16:43;;;;;;;12.40;10.93;;;14.60;99.90;;;;;;5052269;28;20428;-47
2022/09/24 00:19:11;;;;;;;13.00;10.97;;;14.60;99.90;;;;;;5053272;28;20470;-47
2022/09/24 00:21:38;;;;;;;13.80;11.40;;;14.50;99.90;;;;;;5052570;28;20432;-48
2022/09/24 00:27:02;;;;;;;12.13;10.97;;;14.50;99.90;;;;;;5052280;28;20423;-50
2022/09/24 00:29:30;;;;;;;13.00;11.00;;;14.50;99.90;;;;;;5052597;28;20443;-47
2022/09/24 00:31:55;;;;;;;12.93;10.47;;;14.50;99.90;;;;;;5052344;28;20966;-49
2022/09/24 00:34:21;;;;;;;14.00;11.50;;;14.50;99.90;;;;;;5051869;28;20443;-49
2022/09/24 00:36:47;;;;;;;14.70;10.73;;;14.50;99.90;;;;;;5052212;28;20202;-50
2022/09/24 00:39:13;;;;;;;11.67;10.37;;;14.50;99.90;;;;;;5051104;28;20574;-49
2022/09/24 00:41:43;;;;;;;13.77;11.13;;;14.50;99.90;;;;;;5051975;28;20554;-50
2022/09/24 00:44:37;;;;;;;11.57;10.37;;;14.40;99.90;;;;;;5051684;28;20526;-48
2022/09/24 00:47:03;;;;;;;11.80;10.60;;;14.40;99.90;;;;;;5052027;28;20505;-51
2022/09/24 00:49:28;;;;;;;12.00;10.50;;;14.40;99.90;;;;;;5052171;28;20428;-46
2022/09/24 00:51:54;;;;;;;11.80;9.97;;;14.40;99.90;;;;;;5051869;28;20520;-49
2022/09/24 00:54:25;;;;;;;11.50;10.27;;;14.30;99.90;;;;;;5050180;28;20787;-46
2022/09/24 00:56:52;;;;;;;12.60;10.80;;;14.30;99.90;;;;;;5052000;28;20184;-47
2022/09/24 00:59:22;;;;;;;11.17;10.07;;;14.20;99.90;;;;;;5051887;28;20424;-48
2022/09/24 01:01:50;;;;;;;13.90;11.87;;;14.20;99.90;;;;;;5051854;28;20452;-46
2022/09/24 01:04:21;;;;;;;12.60;10.60;;;14.20;99.90;;;;;;5051053;28;20478;-47
2022/09/24 01:06:48;;;;;;;11.83;10.63;;;14.20;99.90;;;;;;5051321;28;20420;-47
2022/09/24 01:09:16;;;;;;;11.23;10.13;;;14.20;99.90;;;;;;5051779;28;20469;-46
2022/09/24 01:12:13;;;;;;;12.80;11.60;;;14.20;99.90;;;;;;5051627;28;20478;-48
2022/09/24 01:15:06;;;;;;;12.97;11.50;;;14.10;99.90;;;;;;5050829;28;20447;-49
2022/09/24 01:18:17;;;;;;;15.83;10.67;;;14.10;99.90;;;;;;5051593;28;20490;-49
2022/09/24 01:21:09;;;;;;;13.73;12.00;;;14.10;99.90;;;;;;5051980;28;20420;-47
2022/09/24 01:23:43;;;;;;;12.37;11.10;;;14.10;99.90;;;;;;5050527;28;20458;-50
2022/09/24 01:26:46;;;;;;;13.20;11.80;;;14.10;99.90;;;;;;5050736;28;20436;-49
2022/09/24 01:29:30;;;;;;;14.63;11.83;;;14.10;99.90;;;;;;5038176;28;20429;-46
2022/09/24 01:32:12;;;;;;;14.53;13.03;;;14.10;99.90;;;;;;5051357;28;20499;-46
2022/09/24 01:34:53;;;;;;;13.70;12.40;;;14.10;99.90;;;;;;5050526;28;20436;-48
2022/09/24 01:37:23;;;;;;;13.87;12.57;;;14.20;99.90;;;;;;5051206;28;20419;-48
2022/09/24 01:39:52;;;;;;;13.53;12.20;;;14.20;99.90;;;;;;5051023;28;20515;-48
2022/09/24 01:42:19;;;;;;;14.20;10.43;;;14.30;99.90;;;;;;5050960;28;20486;-48
2022/09/24 01:44:46;;;;;;;15.00;13.10;;;14.30;99.90;;;;;;5050733;28;21129;-51
2022/09/24 01:47:30;;;;;;;15.30;13.07;;;14.30;99.90;;;;;;5050892;28;20907;-49
2022/09/24 01:49:56;;;;;;;11.87;10.70;;;14.30;99.90;;;;;;5050944;28;21073;-49
2022/09/24 01:52:27;;;;;;;12.70;11.40;;;14.30;99.90;;;;;;5050554;28;20483;-47
2022/09/24 01:54:56;;;;;;;17.30;12.73;;;14.30;99.90;;;;;;5049098;28;20219;-48
2022/09/24 01:57:23;;;;;;;17.00;11.93;;;14.30;99.90;;;;;;5050775;28;20777;-47
2022/09/24 02:00:08;;;;;;;16.63;12.57;;;14.20;99.90;;;;;;5050500;28;20431;-48
2022/09/24 02:02:42;;;;;;;14.97;13.10;;;14.20;99.90;;;;;;5050455;28;20432;-49
2022/09/24 02:05:20;;;;;;;14.87;12.77;;;14.20;99.90;;;;;;5050146;28;20534;-47
2022/09/24 02:08:21;;;;;;;14.90;12.17;;;14.20;99.90;;;;;;5050650;28;20431;-50
2022/09/24 02:11:01;;;;;;;14.00;12.60;;;14.10;99.90;;;;;;5050223;28;20468;-48
2022/09/24 02:13:32;;;;;;;17.30;13.80;;;14.10;99.90;;;;;;5049557;28;20431;-48
2022/09/24 02:16:03;;;;;;;15.20;13.63;;;14.10;99.90;;;;;;5050409;28;20455;-50
2022/09/24 02:18:36;;;;;;;18.67;13.97;;;14.10;99.90;;;;;;5050551;28;20431;-48
2022/09/24 02:21:08;;;;;;;17.87;13.40;;;14.10;99.90;;;;;;5051459;28;20472;-50
2022/09/24 02:23:37;;;;;;;14.90;13.40;;;14.00;99.90;;;;;;5049694;28;20927;-49
2022/09/24 02:26:03;;;;;;;15.53;13.47;;;14.00;99.90;;;;;;5050010;28;20444;-50
2022/09/24 02:28:31;;;;;;;15.40;13.50;;;14.00;99.90;;;;;;5050378;28;20432;-48
2022/09/24 02:31:09;;;;;;;16.13;14.50;;;13.90;99.90;;;;;;5049989;28;20499;-49
2022/09/24 02:36:23;;;;;;;17.00;14.63;;;13.90;99.90;;;;;;5049354;28;20427;-50
2022/09/24 02:38:50;;;;;;;15.17;13.63;;;13.90;99.90;;;;;;5050165;28;20800;-48
2022/09/24 02:41:16;;;;;;;15.83;14.33;;;13.90;99.90;;;;;;5050023;28;20458;-47
2022/09/24 02:43:43;;;;;;;15.93;14.30;;;13.90;99.90;;;;;;5049399;28;20489;-47
2022/09/24 02:46:09;;;;;;;18.63;15.87;;;13.80;99.90;;;;;;5049802;28;20436;-46
2022/09/24 02:48:35;;;;;;;16.87;15.07;;;13.80;99.90;;;;;;5049854;28;20439;-50
2022/09/24 02:51:05;;;;;;;18.83;15.00;;;13.90;99.90;;;;;;5049585;28;20479;-48
2022/09/24 02:53:31;;;;;;;17.70;15.80;;;13.90;99.90;;;;;;5048227;28;20466;-52
2022/09/24 02:55:59;;;;;;;19.07;15.27;;;13.90;99.90;;;;;;5049787;28;20458;-48
2022/09/24 02:58:26;;;;;;;18.57;14.53;;;13.90;99.90;;;;;;5049846;28;20506;-51
2022/09/24 03:00:53;;;;;;;16.40;14.70;;;13.90;99.90;;;;;;5049850;28;20795;-49
2022/09/24 03:03:20;;;;;;;17.33;14.07;;;13.90;99.90;;;;;;5048752;28;21157;-47
2022/09/24 03:05:45;;;;;;;15.53;13.27;;;14.00;99.90;;;;;;5049691;28;20483;-49
2022/09/24 03:08:11;;;;;;;17.67;14.23;;;13.90;99.90;;;;;;5049574;28;20491;-47
2022/09/24 03:10:38;;;;;;;14.47;11.70;;;14.00;99.90;;;;;;5049747;28;20539;-50
2022/09/24 03:13:03;;;;;;;19.47;12.83;;;14.00;99.90;;;;;;5049010;28;20526;-49
2022/09/24 03:15:29;;;;;;;14.23;12.77;;;14.00;99.90;;;;;;5049835;28;20431;-46
2022/09/24 03:17:55;;;;;;;14.67;13.20;;;14.00;99.90;;;;;;5049187;28;20190;-49
2022/09/24 03:20:21;;;;;;;20.50;15.63;;;14.10;99.90;;;;;;5051034;28;20182;-47
2022/09/24 03:22:50;;;;;;;16.30;14.00;;;14.10;99.90;;;;;;5049006;28;20205;-48
2022/09/24 03:25:16;;;;;;;17.03;14.37;;;14.10;99.90;;;;;;5049647;28;20463;-52
2022/09/24 03:27:42;;;;;;;14.20;12.70;;;14.00;99.90;;;;;;5049452;28;20450;-48
2022/09/24 03:32:52;;;;;;;15.10;13.10;;;14.00;99.90;;;;;;5046632;28;20197;-49
2022/09/24 03:35:19;;;;;;;15.43;13.83;;;14.10;99.90;;;;;;5048717;28;20443;-50
2022/09/24 03:37:45;;;;;;;18.37;14.73;;;14.00;99.90;;;;;;5049351;28;20276;-47
2022/09/24 03:40:11;;;;;;;16.03;14.10;;;14.00;99.90;;;;;;5049595;28;20524;-49
2022/09/24 03:42:36;;;;;;;16.87;15.10;;;14.10;99.90;;;;;;5047740;28;20239;-50
2022/09/24 03:45:03;;;;;;;17.90;16.00;;;14.10;99.90;;;;;;5048919;28;20424;-52
2022/09/24 03:47:29;;;;;;;17.73;15.00;;;14.00;99.90;;;;;;5049765;28;20190;-46
2022/09/24 03:49:55;;;;;;;16.00;14.30;;;14.00;99.90;;;;;;5053203;28;20437;-48
2022/09/24 03:52:21;;;;;;;17.03;15.23;;;14.00;99.90;;;;;;5052968;28;21120;-51
2022/09/24 03:54:47;;;;;;;17.70;14.67;;;13.90;99.90;;;;;;5051939;28;20907;-51
2022/09/24 03:57:13;;;;;;;18.20;14.47;;;14.00;99.90;;;;;;5053094;28;20198;-47
2022/09/24 03:59:43;;;;;;;19.10;14.40;;;14.00;99.90;;;;;;5052587;28;20436;-47
2022/09/24 04:02:09;;;;;;;16.00;14.30;;;14.10;99.90;;;;;;5052978;28;20436;-51
2022/09/24 04:04:35;;;;;;;15.30;13.70;;;14.00;99.90;;;;;;5052276;28;20447;-47
2022/09/24 04:07:01;;;;;;;17.63;14.23;;;14.00;99.90;;;;;;5052838;28;20428;-46
2022/09/24 04:09:26;;;;;;;16.27;14.40;;;14.00;99.90;;;;;;5052778;28;20290;-48
2022/09/24 04:11:52;;;;;;;16.37;13.47;;;14.00;99.90;;;;;;5052702;28;20220;-49
2022/09/24 04:14:19;;;;;;;15.53;13.97;;;13.90;99.90;;;;;;5051746;28;20297;-49
2022/09/24 04:16:44;;;;;;;14.50;13.00;;;13.90;99.90;;;;;;5052700;28;20198;-48
2022/09/24 04:19:14;;;;;;;13.93;12.53;;;13.80;99.90;;;;;;5053438;28;20424;-50
2022/09/24 04:21:44;;;;;;;13.90;12.40;;;13.80;99.90;;;;;;5039800;28;20181;-46
2022/09/24 04:24:10;;;;;;;16.07;12.30;;;13.80;99.90;;;;;;5051826;28;20429;-51
2022/09/24 04:26:36;;;;;;;15.93;13.17;;;13.80;99.90;;;;;;5052312;28;20420;-47
2022/09/24 04:29:02;;;;;;;13.37;11.97;;;13.70;99.90;;;;;;5052369;28;20436;-49
2022/09/24 04:31:31;;;;;;;14.97;13.33;;;13.70;99.90;;;;;;5052356;28;20624;-48
2022/09/24 04:33:57;;;;;;;19.03;14.10;;;13.60;99.90;;;;;;5051764;28;20436;-49
2022/09/24 04:36:22;;;;;;;14.43;12.90;;;13.50;99.90;;;;;;5052421;28;20431;-49
2022/09/24 04:38:49;;;;;;;15.10;13.23;;;13.40;99.90;;;;;;5052390;28;20276;-48
2022/09/24 04:41:15;;;;;;;14.47;12.67;;;13.40;99.90;;;;;;5052003;28;20194;-50
2022/09/24 04:43:42;;;;;;;14.00;12.60;;;13.50;99.90;;;;;;5051607;28;20431;-47
2022/09/24 04:46:08;;;;;;;15.17;13.37;;;13.40;99.90;;;;;;5052162;28;20443;-48
2022/09/24 04:48:37;;;;;;;13.97;12.50;;;13.40;99.90;;;;;;5052107;28;20895;-48
2022/09/24 04:51:04;;;;;;;15.83;14.13;;;13.40;99.90;;;;;;5052037;28;20551;-50
2022/09/24 04:53:31;;;;;;;14.60;12.47;;;13.50;99.90;;;;;;5050549;28;20435;-50
2022/09/24 04:55:58;;;;;;;16.67;12.93;;;13.50;99.90;;;;;;5051629;28;20428;-47
2022/09/24 04:58:25;;;;;;;15.67;13.20;;;13.50;99.90;;;;;;5051498;28;20511;-47
2022/09/24 05:00:52;;;;;;;16.57;13.53;;;13.50;99.90;;;;;;5051887;28;20439;-50
2022/09/24 05:03:21;;;;;;;15.00;13.20;;;13.50;99.90;;;;;;5051179;28;20796;-50
2022/09/24 05:05:47;;;;;;;14.87;13.37;;;13.50;99.90;;;;;;5051579;28;20452;-46
2022/09/24 05:08:13;;;;;;;14.00;12.50;;;13.50;99.90;;;;;;5051721;28;20434;-51
2022/09/24 05:10:39;;;;;;;13.80;12.50;;;13.50;99.90;;;;;;5051718;28;20436;-47
2022/09/24 05:13:04;;;;;;;15.13;12.90;;;13.50;99.90;;;;;;5050848;28;20459;-49
2022/09/24 05:15:30;;;;;;;13.17;11.73;;;13.50;99.90;;;;;;5051594;28;20213;-51
2022/09/24 05:17:56;;;;;;;16.10;12.90;;;13.60;99.90;;;;;;5051721;28;20186;-46
2022/09/24 05:20:22;;;;;;;13.60;11.23;;;13.50;99.90;;;;;;5052148;28;20190;-51
2022/09/24 05:22:48;;;;;;;15.27;13.00;;;13.60;99.90;;;;;;5050681;28;20479;-49
2022/09/24 05:25:16;;;;;;;13.83;11.97;;;13.60;99.90;;;;;;5051478;28;20198;-47
2022/09/24 05:27:47;;;;;;;15.07;12.07;;;13.60;99.90;;;;;;5051414;28;20451;-47
2022/09/24 05:30:13;;;;;;;16.87;12.90;;;13.60;99.90;;;;;;5051438;28;20539;-49
2022/09/24 05:32:39;;;;;;;16.03;12.37;;;13.50;99.90;;;;;;5050671;28;20480;-47
2022/09/24 05:35:07;;;;;;;14.83;11.70;;;13.50;99.90;;;;;;5051109;28;20478;-50
2022/09/24 05:37:33;;;;;;;12.67;11.37;;;13.50;99.90;;;;;;5050889;28;20432;-49
2022/09/24 05:40:46;;;;;;;12.70;11.40;;;13.50;99.90;;;;;;5051316;28;20865;-47
2022/09/24 05:42:45;;;;;;;14.30;11.70;;;13.50;99.90;;;;;;5050131;28;20493;-46
2022/09/24 05:45:12;;;;;;;14.27;11.77;;;13.50;99.90;;;;;;5051204;28;20451;-49
2022/09/24 05:47:37;;;;;;;12.40;11.17;;;13.50;99.90;;;;;;5050863;28;20464;-52
2022/09/24 05:50:03;;;;;;;15.50;12.43;;;13.50;99.90;;;;;;5050679;28;20838;-52
2022/09/24 05:52:29;;;;;;;13.20;10.97;;;13.40;99.90;;;;;;5050624;28;20216;-51
2022/09/24 05:54:55;;;;;;;12.77;11.00;;;13.40;99.90;;;;;;5048335;28;21000;-48
2022/09/24 05:57:20;;;;;;;15.33;12.83;;;13.40;99.90;;;;;;5050733;28;20231;-48
2022/09/24 05:59:46;;;;;;;14.73;11.73;;;13.40;99.90;;;;;;5050654;28;20645;-47
2022/09/24 06:02:12;;;;;;;13.23;11.83;;;13.40;99.90;;;;;;5050623;28;20281;-51
2022/09/24 06:04:37;;;;;;;13.03;11.33;;;13.40;99.90;;;;;;5049776;28;20205;-51
2022/09/24 06:07:03;;;;;;;15.07;11.90;;;13.40;99.90;;;;;;5050481;28;20212;-47
2022/09/24 06:09:28;;;;;;;12.40;10.47;;;13.40;99.90;;;;;;5049438;28;20301;-48
2022/09/24 06:11:55;;;;;;;12.60;11.30;;;13.50;99.90;;;;;;5049591;28;20219;-47
2022/09/24 06:14:21;;;;;;;11.87;10.67;;;13.60;99.90;;;;;;5049827;28;20178;-50
2022/09/24 06:16:47;;;;;;;14.63;11.40;;;13.60;99.90;;;;;;5050348;28;20802;-48
2022/09/24 06:19:12;;;;;;;12.93;11.43;;;13.70;99.90;;;;;;5051103;28;20189;-46
2022/09/24 06:21:38;;;;;;;13.67;11.47;;;13.70;99.90;;;;;;5050516;28;20209;-48
2022/09/24 06:24:03;;;;;;;14.63;11.13;;;13.80;99.90;;;;;;5049624;28;20189;-50
2022/09/24 06:26:29;;;;;;;14.53;12.50;;;13.80;99.90;;;;;;5050432;28;20198;-49
2022/09/24 06:28:55;;;;;;;13.53;11.47;;;13.70;99.90;;;;;;5050264;28;20185;-46
2022/09/24 06:31:21;;;;;;;13.00;11.30;;;13.70;99.90;;;;;;5050095;28;20460;-48
2022/09/24 06:33:46;;;;;;;14.13;12.63;;;13.70;99.90;;;;;;5049229;28;20186;-46
2022/09/24 06:36:13;;;;;;;13.30;11.90;;;13.80;99.90;;;;;;5050293;28;20190;-49
2022/09/24 06:38:39;;;;;;;14.70;11.90;;;13.80;99.90;;;;;;5049901;28;20552;-46
2022/09/24 06:41:05;;;;;;;12.43;11.10;;;13.90;99.90;;;;;;5050250;28;20463;-50
2022/09/24 06:43:32;;;;;;;15.63;11.90;;;13.80;99.90;;;;;;5049278;28;20539;-47
2022/09/24 06:45:59;;;;;;;11.83;10.63;;;13.80;99.90;;;;;;5050083;28;20424;-47
2022/09/24 06:48:26;;;;;;;16.20;11.90;;;13.90;99.90;;;;;;5049454;28;20428;-48
2022/09/24 06:50:53;;;;;;;13.53;12.10;;;13.90;99.90;;;;;;5048664;28;20455;-48
2022/09/24 06:53:19;;;;;;;14.17;11.90;;;13.90;99.90;;;;;;5048603;28;20424;-48
2022/09/24 06:55:45;;;;;;;13.47;11.53;;;13.90;99.90;;;;;;5049021;28;20428;-51
2022/09/24 06:58:19;;;;;;;14.70;12.47;;;13.90;99.90;;;;;;5049772;28;20427;-46
2022/09/24 07:00:52;;;;;;;13.53;12.13;;;13.90;99.90;;;;;;5049877;28;20184;-46
2022/09/24 07:03:19;;;;;;;13.87;11.97;;;13.90;99.90;;;;;;5048978;28;20440;-50
2022/09/24 07:05:44;;;;;;;12.83;11.30;;;14.00;99.90;;;;;;5049716;28;20440;-49
2022/09/24 07:08:10;;;;;;;15.20;12.57;;;14.00;99.90;;;;;;5048325;28;20582;-49
2022/09/24 07:10:36;;;;;;;13.33;11.30;;;14.10;99.90;;;;;;5049646;28;20205;-50
2022/09/24 07:13:02;;;;;;;12.90;11.00;;;14.10;99.90;;;;;;5049023;28;20192;-49
2022/09/24 07:15:28;;;;;;;12.33;10.80;;;14.10;99.90;;;;;;5049405;28;20424;-46
2022/09/24 07:17:55;;;;;;;15.50;11.60;;;14.20;99.90;;;;;;5048841;28;20247;-50
2022/09/24 07:20:21;;;;;;;14.60;12.50;;;14.20;99.90;;;;;;5049625;28;20177;-50
2022/09/24 07:22:46;;;;;;;13.33;11.87;;;14.30;99.90;;;;;;5051335;28;21204;-51
2022/09/24 07:25:12;;;;;;;13.77;11.60;;;14.30;99.90;;;;;;5053723;28;20206;-50
2022/09/24 07:27:38;;;;;;;14.33;12.37;;;14.40;99.90;;;;;;5053688;28;20193;-46
2022/09/24 07:30:05;;;;;;;16.80;13.37;;;14.40;99.90;;;;;;5053295;28;20189;-48
2022/09/24 07:32:31;;;;;;;17.83;13.60;;;14.40;99.90;;;;;;5053298;28;20471;-46
2022/09/24 07:34:57;;;;;;;15.53;13.30;;;14.50;99.90;;;;;;5053041;28;20451;-46
2022/09/24 07:37:23;;;;;;;16.30;13.33;;;14.50;99.90;;;;;;5053437;28;20432;-50
2022/09/24 07:39:48;;;;;;;14.03;12.63;;;14.60;99.90;;;;;;5053531;28;20186;-47
2022/09/24 07:42:14;;;;;;;16.27;13.53;;;14.60;99.90;;;;;;5053254;28;20190;-49
2022/09/24 07:44:39;;;;;;;15.07;12.17;;;14.70;99.90;;;;;;5052414;28;20197;-46
2022/09/24 07:47:05;;;;;;;14.10;12.13;;;14.70;99.90;;;;;;5053292;28;20280;-50
2022/09/24 07:49:31;;;;;;;16.60;13.00;;;14.70;99.90;;;;;;5053521;28;20186;-50
2022/09/24 07:51:58;;;;;;;14.33;12.83;;;14.70;99.90;;;;;;5053188;28;20309;-48
2022/09/24 07:54:25;;;;;;;13.27;11.90;;;14.80;99.90;;;;;;5051329;28;20489;-48
2022/09/24 07:56:50;;;;;;;14.43;12.87;;;14.80;99.90;;;;;;5053074;28;20428;-49
2022/09/24 07:59:18;;;;;;;15.17;11.50;;;14.90;99.90;;;;;;5052923;28;21010;-49
2022/09/24 08:01:44;;;;;;;16.90;12.03;;;14.80;99.90;;;;;;5052862;28;20190;-48
2022/09/24 08:04:09;;;;;;;13.70;11.10;;;14.90;99.90;;;;;;5052470;28;20538;-49
2022/09/24 08:06:35;;;;;;;14.47;12.53;;;14.90;99.90;;;;;;5052601;28;20274;-48
2022/09/24 08:09:02;;;;;;;13.07;11.70;;;15.00;99.90;;;;;;5052952;28;20205;-47
2022/09/24 08:11:28;;;;;;;14.90;12.40;;;15.00;99.90;;;;;;5052795;28;20797;-46
2022/09/24 08:13:56;;;;;;;12.87;11.57;;;15.00;99.90;;;;;;5052057;28;20432;-51
2022/09/24 08:16:22;;;;;;;11.03;9.83;;;15.10;99.90;;;;;;5052774;28;21071;-49
2022/09/24 08:18:48;;;;;;;13.20;11.73;;;15.10;99.90;;;;;;5052761;28;20428;-46
2022/09/24 08:21:14;;;;;;;13.90;11.40;;;15.10;99.90;;;;;;5053366;28;20778;-47
2022/09/24 08:23:41;;;;;;;14.10;11.00;;;15.00;99.90;;;;;;5052091;28;20194;-47
2022/09/24 08:26:07;;;;;;;14.03;11.30;;;15.00;99.90;;;;;;5052340;28;20205;-49
2022/09/24 08:28:33;;;;;;;11.43;10.23;;;15.00;99.90;;;;;;5051093;28;21405;-49
2022/09/24 08:31:06;;;;;;;14.70;11.30;;;14.90;99.90;;;;;;5052400;28;20513;-52
2022/09/24 08:33:32;;;;;;;12.50;11.20;;;15.00;99.90;;;;;;5051129;28;20178;-51
2022/09/24 08:35:59;;;;;;;12.53;11.03;;;15.00;99.90;;;;;;5052409;28;20447;-47
2022/09/24 08:38:26;;;;;;;12.07;9.80;;;15.10;99.90;;;;;;5052272;28;20432;-49
2022/09/24 08:41:24;;;;;;;14.57;11.77;;;15.20;99.90;;;;;;5052151;28;20428;-51
2022/09/24 08:47:21;;;;;;;12.53;10.97;;;15.20;99.90;;;;;;5051613;28;20508;-47
2022/09/24 08:47:24;;;;;;;13.40;10.90;;;15.20;99.90;;;;;;5051667;28;20439;-51
2022/09/24 08:50:06;;;;;;;14.77;11.80;;;15.20;99.90;;;;;;5052171;28;20455;-52
2022/09/24 08:52:41;;;;;;;11.67;10.47;;;15.30;99.90;;;;;;5038830;28;20472;-48
2022/09/24 08:55:32;;;;;;;15.67;11.33;;;15.40;99.90;;;;;;5050621;28;20420;-47
2022/09/24 08:58:16;;;;;;;12.80;11.50;;;15.30;99.90;;;;;;5051927;28;20424;-48
2022/09/24 09:00:56;;;;;;;14.00;10.60;;;15.40;99.90;;;;;;5051971;28;20440;-49
2022/09/24 09:03:34;;;;;;;14.57;11.20;;;15.50;99.90;;;;;;5051113;28;20762;-51
2022/09/24 09:06:08;;;;;;;12.97;11.03;;;15.60;99.90;;;;;;5051611;28;20428;-49
2022/09/24 09:08:53;;;;;;;14.70;11.93;;;15.60;99.90;;;;;;5051779;28;20411;-47
2022/09/24 09:11:23;;;;;;;11.83;10.10;;;15.60;99.90;;;;;;5051693;28;20516;-47
2022/09/24 09:14:03;;;;;;;13.03;10.43;;;15.80;99.90;;;;;;5050980;28;20427;-47
2022/09/24 09:16:32;;;;;;;13.63;10.70;;;15.90;99.90;;;;;;5051612;28;20423;-50
2022/09/24 09:19:05;;;;;;;15.67;11.70;;;16.00;99.90;;;;;;5051630;28;20511;-53
2022/09/24 09:21:40;;;;;;;14.00;11.70;;;16.10;99.90;;;;;;5050250;28;20425;-47
2022/09/24 09:24:16;;;;;;;15.10;12.00;;;16.20;99.90;;;;;;5050817;28;20965;-48
2022/09/24 09:26:48;;;;;;;11.30;9.70;;;16.30;99.90;;;;;;5051310;28;20431;-46
2022/09/24 09:29:14;;;;;;;11.03;9.83;;;16.20;99.90;;;;;;5051551;28;20824;-47
2022/09/24 09:31:52;;;;;;;13.33;11.50;;;16.30;99.90;;;;;;5051513;28;20452;-49
2022/09/24 09:34:37;;;;;;;14.00;10.50;;;16.20;99.90;;;;;;5050588;28;20475;-52
2022/09/24 09:37:23;;;;;;;11.87;9.80;;;16.20;99.90;;;;;;5051128;28;20412;-48
2022/09/24 09:40:36;;;;;;;12.23;10.63;;;16.10;99.90;;;;;;5051247;28;20492;-49
2022/09/24 09:43:07;;;;;;;10.60;9.50;;;16.10;99.90;;;;;;5050245;28;20424;-48
2022/09/24 09:46:11;;;;;;;12.20;10.80;;;16.20;99.90;;;;;;5048676;28;20427;-48
2022/09/24 09:48:58;;;;;;;11.23;9.43;;;16.20;99.90;;;;;;5050841;28;21068;-48
2022/09/24 09:51:25;;;;;;;10.93;8.70;;;16.20;99.90;;;;;;5051080;28;20796;-51
2022/09/24 09:53:55;;;;;;;10.73;8.43;;;16.30;99.90;;;;;;5048383;28;21193;-50
2022/09/24 09:56:27;;;;;;;10.50;9.33;;;16.30;99.90;;;;;;5051008;28;20945;-53
2022/09/24 09:59:21;;;;;;;11.47;9.67;;;16.20;99.90;;;;;;5050689;28;20507;-51
2022/09/24 10:01:54;;;;;;;11.30;9.13;;;16.20;99.90;;;;;;5050494;28;20943;-47
2022/09/24 10:04:40;;;;;;;9.30;8.27;;;16.30;99.90;;;;;;5049856;28;20452;-51
2022/09/24 10:07:14;;;;;;;10.13;8.03;;;16.30;99.90;;;;;;5067135;28;20530;-45
2022/09/24 10:09:42;;;;;;;10.10;7.90;;;16.30;99.90;;;;;;5067187;28;20415;-48
2022/09/24 10:12:15;;;;;;;14.50;9.23;;;16.30;99.90;;;;;;5058997;28;20447;-49
2022/09/24 10:14:41;;;;;;;10.97;9.57;;;16.30;99.90;;;;;;5062233;28;20829;-50
2022/09/24 10:17:13;;;;;;;11.50;7.77;;;16.30;99.90;;;;;;5067123;28;20426;-49
2022/09/24 10:19:42;;;;;;;12.20;7.70;;;16.40;99.90;;;;;;5066838;28;20466;-47
2022/09/24 10:22:21;;;;;;;11.77;8.13;;;16.40;99.90;;;;;;5067189;28;20918;-47
2022/09/24 10:24:47;;;;;;;12.33;8.07;;;16.50;99.90;;;;;;5066303;28;20481;-49
2022/09/24 10:27:22;;;;;;;8.30;6.93;;;16.50;99.90;;;;;;5065385;28;20423;-49
2022/09/24 10:32:38;;;;;;;7.47;6.27;;;16.60;99.90;;;;;;5066333;28;20431;-51
2022/09/24 10:35:20;;;;;;;8.17;7.00;;;16.60;99.90;;;;;;5066501;28;20934;-52
2022/09/24 10:37:54;;;;;;;7.87;6.60;;;16.70;99.90;;;;;;5066670;28;20793;-46
2022/09/24 10:40:24;;;;;;;8.70;7.47;;;16.70;99.90;;;;;;5066822;28;20769;-48
2022/09/24 10:43:01;;;;;;;7.93;6.80;;;16.80;99.90;;;;;;5066021;28;20443;-50
2022/09/24 10:46:02;;;;;;;9.03;7.47;;;16.80;99.90;;;;;;5066230;28;20969;-45
2022/09/24 10:48:44;;;;;;;9.00;7.27;;;16.90;99.90;;;;;;5065668;28;20435;-47
2022/09/24 10:51:10;;;;;;;7.90;7.10;;;17.00;99.90;;;;;;5042530;28;20435;-45
2022/09/24 10:54:13;;;;;;;7.87;6.83;;;17.00;99.90;;;;;;5063738;28;20427;-49
2022/09/24 10:56:54;;;;;;;6.97;5.90;;;17.10;99.90;;;;;;5066104;28;20470;-49
2022/09/24 10:59:45;;;;;;;8.23;5.93;;;17.00;99.90;;;;;;5066455;28;20419;-44
2022/09/24 11:02:41;;;;;;;7.30;6.60;;;17.10;99.90;;;;;;5066067;28;20415;-50
2022/09/24 11:05:23;;;;;;;7.83;6.97;;;17.20;99.90;;;;;;5064458;28;20471;-51
2022/09/24 11:08:15;;;;;;;7.67;6.80;;;17.20;99.90;;;;;;5058986;28;20788;-48
2022/09/24 11:10:53;;;;;;;8.90;6.73;;;17.10;99.90;;;;;;5065950;28;20451;-48
2022/09/24 11:13:47;;;;;;;8.33;7.53;;;17.20;99.90;;;;;;5051695;28;20914;-50
2022/09/24 11:16:37;;;;;;;7.80;6.50;;;17.30;99.90;;;;;;5065791;28;20455;-51
2022/09/24 11:19:15;;;;;;;7.40;6.70;;;17.30;99.90;;;;;;5052414;28;20470;-49
2022/09/24 11:22:11;;;;;;;8.37;7.20;;;17.40;99.90;;;;;;5026505;28;20462;-50
2022/09/24 11:25:04;;;;;;;7.93;7.10;;;17.40;99.90;;;;;;5052012;28;20420;-49
2022/09/24 11:27:30;;;;;;;7.70;6.90;;;17.50;99.90;;;;;;5052126;28;20424;-49
2022/09/24 11:30:18;;;;;;;8.07;7.03;;;17.50;99.90;;;;;;5052470;28;20775;-50
2022/09/24 11:32:44;;;;;;;7.97;6.90;;;17.40;99.90;;;;;;5051697;28;20190;-47
2022/09/24 11:35:28;;;;;;;8.80;7.40;;;17.40;99.90;;;;;;5052394;28;20498;-47
2022/09/24 11:37:59;;;;;;;7.80;7.00;;;17.30;99.90;;;;;;5051989;28;20190;-50
2022/09/24 11:40:36;;;;;;;8.87;7.47;;;17.20;99.90;;;;;;5052312;28;20420;-45
2022/09/24 11:43:44;;;;;;;8.40;7.50;;;17.10;99.90;;;;;;5051517;28;20422;-48
2022/09/24 11:46:35;;;;;;;10.33;8.57;;;17.10;99.90;;;;;;5051813;28;20464;-51
2022/09/24 11:49:58;;;;;;;9.27;8.37;;;17.10;99.90;;;;;;5048262;28;20508;-50
2022/09/24 11:52:35;;;;;;;9.70;8.70;;;17.20;99.90;;;;;;5028746;28;20448;-48
2022/09/24 11:55:31;;;;;;;9.73;8.73;;;17.20;99.90;;;;;;5027162;28;20435;-52
2022/09/24 11:58:11;;;;;;;9.57;8.60;;;17.20;99.90;;;;;;5033058;28;20440;-50
2022/09/24 12:00:43;;;;;;;11.47;9.10;;;17.20;99.90;;;;;;5051946;28;20416;-47
2022/09/24 12:03:38;;;;;;;10.90;8.97;;;17.20;99.90;;;;;;5050889;28;20482;-48
2022/09/24 12:06:12;;;;;;;9.43;8.33;;;17.10;99.90;;;;;;5042399;28;20475;-47
2022/09/24 12:09:04;;;;;;;10.10;8.97;;;17.10;99.90;;;;;;5051447;28;20424;-45
2022/09/24 12:11:40;;;;;;;10.80;9.80;;;17.00;99.90;;;;;;5048302;28;20429;-48
2022/09/24 12:14:14;;;;;;;11.93;10.73;;;17.00;99.90;;;;;;5046367;28;20432;-45
2022/09/24 12:16:44;;;;;;;12.53;10.03;;;17.00;99.90;;;;;;5050685;28;20438;-50
2022/09/24 12:19:21;;;;;;;12.80;11.50;;;17.00;99.90;;;;;;5051375;28;20421;-49
2022/09/24 12:21:50;;;;;;;11.93;10.47;;;17.00;99.90;;;;;;5026901;28;20482;-47
2022/09/24 12:24:37;;;;;;;11.93;10.80;;;17.00;99.90;;;;;;5050787;28;20436;-47
2022/09/24 12:27:10;;;;;;;12.37;11.00;;;17.10;99.90;;;;;;5051408;28;20982;-46
2022/09/24 12:33:00;;;;;;;10.83;9.60;;;17.10;99.90;;;;;;5050697;28;20519;-45
2022/09/24 12:35:52;;;;;;;12.80;8.87;;;17.20;99.90;;;;;;5051247;28;20432;-49
2022/09/24 12:38:46;;;;;;;10.57;9.47;;;17.30;99.90;;;;;;5051011;28;20432;-50
2022/09/24 12:41:22;;;;;;;12.10;9.90;;;17.50;99.90;;;;;;5051275;28;20810;-51
2022/09/24 12:43:54;;;;;;;9.73;7.93;;;17.50;99.90;;;;;;5049031;28;20473;-50
2022/09/24 12:46:43;;;;;;;9.87;7.83;;;17.60;99.90;;;;;;5050968;28;20455;-48
2022/09/24 12:49:24;;;;;;;10.30;8.50;;;17.60;99.90;;;;;;5046108;28;20437;-46
2022/09/24 12:51:55;;;;;;;8.90;7.97;;;17.70;99.90;;;;;;5045574;28;20495;-48
2022/09/24 12:54:32;;;;;;;8.90;8.00;;;17.70;99.90;;;;;;5048728;28;20424;-46
2022/09/24 12:57:20;;;;;;;9.70;8.70;;;17.60;99.90;;;;;;5050587;28;20438;-46
2022/09/24 12:59:56;;;;;;;8.90;7.93;;;17.60;99.90;;;;;;5049459;28;20524;-45
2022/09/24 13:02:44;;;;;;;9.00;7.90;;;17.60;99.90;;;;;;5050649;28;20452;-46
2022/09/24 13:05:27;;;;;;;10.77;8.40;;;17.60;99.90;;;;;;5037816;28;20480;-48
2022/09/24 13:08:06;;;;;;;10.70;9.60;;;17.60;99.90;;;;;;5029592;28;20428;-48
2022/09/24 13:10:37;;;;;;;12.37;11.07;;;17.50;99.90;;;;;;5029592;28;20430;-51
2022/09/24 13:13:21;;;;;;;11.17;10.00;;;17.40;99.90;;;;;;5029301;28;20425;-47